METAR Data
IDs: Format: Raw Decoded Include TAF

Data at: 0937 UTC 26 Jan 2020

KD25 260935Z AUTO 28004KT 7SM -SN OVC006 M02/M02 A2982 RMK AO2 T10221022
KD25 260915Z AUTO 31006KT 5SM -SN OVC006 M02/M02 A2982 RMK AO2 T10211021
KD25 260855Z AUTO 31006KT 7SM OVC006 M02/M02 A2982 RMK AO2 T10211021
KD25 260835Z AUTO 31007KT 7SM OVC008 M02/M02 A2982 RMK AO2 T10201020
KD25 260815Z AUTO 31007KT 10SM OVC008 M02/M02 A2982 RMK AO2 T10201020
KD25 260755Z AUTO 31007KT 10SM OVC008 M02/M02 A2982 RMK AO2 T10201020
KD25 260735Z AUTO 30007KT 10SM OVC006 M02/M02 A2982 RMK AO2 T10201020
KD25 260715Z AUTO 31005KT 7SM OVC006 M02/M02 A2982 RMK AO2 T10201020
KD25 260655Z AUTO 30004KT 10SM OVC008 M02/M02 A2982 RMK AO2 T10201020
KD25 260635Z AUTO 30005KT 10SM OVC008 M02/M02 A2982 RMK AO2 T10201020
KD25 260615Z AUTO 32004KT 10SM OVC008 M02/M02 A2982 RMK AO2 T10201020
KD25 260555Z AUTO 30004KT 5SM -SN OVC008 M02/M02 A2982 RMK AO2 T10201020 11012 21020 400001020
KD25 260535Z AUTO 32004KT 10SM OVC008 M02/M02 A2982 RMK AO2 T10181018
KD25 260515Z AUTO 32006KT 10SM OVC008 M02/M02 A2982 RMK AO2 T10181018
KD25 260455Z AUTO 32004KT 10SM OVC006 M02/M02 A2982 RMK AO2 T10201020
KD25 260435Z AUTO 31005KT 10SM OVC006 M02/M02 A2982 RMK AO2 T10201020
KD25 260415Z AUTO 32005KT 10SM OVC006 M02/M02 A2982 RMK AO2 T10201020
KD25 260355Z AUTO 33004KT 10SM OVC006 M02/M02 A2982 RMK AO2 T10201020
KD25 260335Z AUTO 32006KT 10SM OVC008 M02/M02 A2982 RMK AO2 T10181018
KD25 260315Z AUTO 33005KT 10SM OVC008 M02/M02 A2982 RMK AO2 T10171018
KD25 260255Z AUTO 32004KT 7SM -SN OVC008 M02/M02 A2982 RMK AO2 T10181018
KD25 260235Z AUTO 32006KT 7SM -SN OVC008 M02/M02 A2981 RMK AO2 T10181018
KD25 260215Z AUTO 31005KT 5SM -SN OVC008 M02/M02 A2982 RMK AO2 T10181018
KD25 260155Z AUTO 31005KT 4SM -SN OVC008 M02/M02 A2982 RMK AO2 T10181018
KD25 260135Z AUTO 32005KT 5SM -SN OVC010 M02/M02 A2982 RMK AO2 T10171017
KD25 260115Z AUTO 32005KT 7SM -SN OVC010 M02/M02 A2982 RMK AO2 T10161016
KD25 260055Z AUTO 32005KT 4SM -SN OVC008 M01/M01 A2982 RMK AO2 T10151015
KD25 260035Z AUTO 32005KT 2 1/2SM -SN BKN007 OVC010 M01/M01 A2982 RMK AO2 T10151015
KD25 260015Z AUTO 32005KT 4SM -SN OVC010 M01/M01 A2982 RMK AO2 T10131013
KD25 252355Z AUTO 32006KT 7SM -SN BKN010 BKN018 OVC025 M01/M01 A2981 RMK AO2 T10121015 10000 21012
KD25 252335Z AUTO 33007KT 10SM -SN SCT010 BKN020 OVC055 M01/M02 A2981 RMK AO2 T10111017
KD25 252315Z AUTO 33005KT 7SM -SN BKN010 OVC014 M01/M01 A2981 RMK AO2 T10101013
KD25 252255Z AUTO 33007KT 5SM -SN OVC008 M01/M01 A2980 RMK AO2 T10101010
KD25 252235Z AUTO 32006KT 3SM -SN BKN006 BKN015 OVC036 M01/M01 A2980 RMK AO2 T10071010
KD25 252215Z AUTO 31006KT 1 1/4SM -SN OVC008 M01/M01 A2980 RMK AO2 T10071007
KD25 252155Z AUTO 33005KT 1 1/2SM -SN OVC008 M01/M01 A2980 RMK AO2 T10061006
KD25 252135Z AUTO 32007KT 2 1/2SM -SN BKN010 OVC018 M01/M01 A2980 RMK AO2 T10061007
KD25 252115Z AUTO 32006KT 3SM -SN BKN010 OVC017 00/00 A2980 RMK AO2 T10051005
KD25 252055Z AUTO 32007KT 3SM -SN BKN010 OVC015 00/M01 A2980 RMK AO2 T10041006
KD25 252035Z AUTO 32007KT 3SM -SN BKN010 OVC015 00/M01 A2979 RMK AO2 T10021006
KD25 252015Z AUTO 34005KT 5SM -SN BKN010 OVC015 00/M01 A2979 RMK AO2 T00001006
KD25 251955Z AUTO 34007KT 5SM -SN BKN010 OVC015 00/00 A2979 RMK AO2 T00001005
KD25 251935Z AUTO 33005KT 4SM -SN BKN010 OVC015 00/M01 A2980 RMK AO2 T00001006
KD25 251915Z AUTO 33004KT 2 1/2SM -SN BKN008 OVC013 00/00 A2980 RMK AO2 T10021002
KD25 251855Z AUTO 32008KT 2 1/2SM -SN OVC008 00/00 A2980 RMK AO2 T10011005
KD25 251835Z AUTO 33005KT 5SM -SN OVC008 00/00 A2980 RMK AO2 T00001005
KD25 251815Z AUTO 33005KT 7SM OVC008 00/00 A2980 RMK AO2 T00001002
KD25 251755Z AUTO 34005KT 10SM OVC008 00/00 A2981 RMK AO2 T00001002 10000 21012
KD25 251735Z AUTO 35004KT 10SM OVC010 00/00 A2981 RMK AO2 T00001004
KD25 251715Z AUTO 35005KT 10SM OVC008 00/00 A2981 RMK AO2 T00001005
KD25 251655Z AUTO 35005KT 10SM OVC008 00/00 A2982 RMK AO2 T00001005
KD25 251635Z AUTO 36005KT 7SM -SN OVC008 00/00 A2982 RMK AO2 T10011005
KD25 251615Z AUTO 36006KT 7SM OVC008 00/00 A2982 RMK AO2 T10011003
KD25 251555Z AUTO 36004KT 4SM -SN OVC008 00/00 A2982 RMK AO2 T10011001
KD25 251535Z AUTO 35005KT 2SM -SN OVC008 00/00 A2981 RMK AO2 VIS 3/4V4 T10041004
KD25 251515Z AUTO 34006KT 320V020 10SM OVC008 00/00 A2981 RMK AO2 T10051005
KD25 251455Z AUTO 36006KT 10SM OVC008 M01/M01 A2981 RMK AO2 T10061006
KD25 251435Z AUTO 35006KT 3SM -SN OVC008 M01/M01 A2981 RMK AO2 T10071007
KD25 251415Z AUTO 36005KT 5SM -SN OVC008 M01/M01 A2981 RMK AO2 T10081008
KD25 251355Z AUTO 35005KT 2SM -SN BKN005 OVC010 M01/M01 A2982 RMK AO2 T10101010
KD25 251335Z AUTO 35004KT 2SM -SN OVC007 M01/M01 A2981 RMK AO2 T10111011
KD25 251315Z AUTO 35004KT 2SM -SN OVC007 M01/M01 A2981 RMK AO2 T10111011
KD25 251255Z AUTO 35004KT 4SM -SN OVC007 M01/M01 A2981 RMK AO2 T10111011
KD25 251235Z AUTO 35004KT 3SM -SN OVC007 M01/M01 A2980 RMK AO2 T10121012
KD25 251215Z AUTO 35004KT 4SM -SN OVC007 M01/M01 A2980 RMK AO2 T10121012
KD25 251155Z AUTO 35004KT 3SM -SN BKN007 BKN019 OVC025 M01/M01 A2980 RMK AO2 60001 70001 T10121012 11010 21012
KD25 251135Z AUTO 01005KT 2SM -SN BKN007 OVC019 M01/M01 A2980 RMK AO2 T10121012
KD25 251115Z AUTO 01004KT 4SM -SN BKN005 BKN021 OVC045 M01/M01 A2980 RMK AO2 T10121012
KD25 251055Z AUTO 01004KT 2 1/2SM -SN BKN007 BKN011 OVC021 M01/M01 A2980 RMK AO2 T10111011
KD25 251035Z AUTO 02005KT 3SM -SN OVC007 M01/M01 A2980 RMK AO2 T10111011
KD25 251015Z AUTO 35004KT 4SM -SN OVC007 M01/M01 A2980 RMK AO2 T10111011
KD25 250955Z AUTO 35004KT 2 1/2SM -SN OVC007 M01/M01 A2980 RMK AO2 P0001 T10111011
KD25 250935Z AUTO 35004KT 3SM -SN BKN007 BKN011 OVC018 M01/M01 A2980 RMK AO2 P0001 T10111011
KD25 250915Z AUTO 01003KT 2SM -SN OVC007 M01/M01 A2980 RMK AO2 P0001 T10111011
KD25 250855Z AUTO 01003KT 2 1/2SM -SN OVC007 M01/M01 A2980 RMK AO2 VIS 1V5 T10111011
KD25 250835Z AUTO 01004KT 2SM -SN OVC007 M01/M01 A2981 RMK AO2 T10111011
KD25 250815Z AUTO 02003KT 5SM -SN OVC007 M01/M01 A2981 RMK AO2 T10111011
KD25 250755Z AUTO 01003KT 10SM -SN OVC007 M01/M01 A2981 RMK AO2 T10111011
KD25 250735Z AUTO 02003KT 5SM -SN OVC007 M01/M01 A2982 RMK AO2 T10111011
KD25 250715Z AUTO 36004KT 2 1/2SM -SN OVC007 M01/M01 A2982 RMK AO2 T10111011
KD25 250655Z AUTO 01004KT 2 1/2SM -SN OVC007 M01/M01 A2983 RMK AO2 T10111011
KD25 250635Z AUTO 01003KT 3SM -SN OVC007 M01/M01 A2984 RMK AO2 T10111011
KD25 250615Z AUTO 01005KT 3SM -SN OVC005 M01/M01 A2984 RMK AO2 T10101010
KD25 250555Z AUTO 01004KT 7SM OVC005 M01/M01 A2984 RMK AO2 T10101010 11005 21010 400001020
KD25 250535Z AUTO 01003KT 4SM -SN OVC005 M01/M01 A2984 RMK AO2 T10101010
KD25 250515Z AUTO 01004KT 10SM UP OVC005 M01/M01 A2985 RMK AO2 T10101010
KD25 250455Z AUTO 04006KT 10SM OVC005 M01/M01 A2986 RMK AO2 T10101010
KD25 250435Z AUTO 02005KT 10SM OVC005 M01/M01 A2986 RMK AO2 T10081008
KD25 250415Z AUTO 03005KT 10SM OVC005 M01/M01 A2986 RMK AO2 T10081008
KD25 250355Z AUTO 03006KT 7SM -SN OVC005 M01/M01 A2985 RMK AO2 T10081008
KD25 250335Z AUTO 02005KT 10SM -SN OVC005 M01/M01 A2986 RMK AO2 T10081008
KD25 250315Z AUTO 02007KT 4SM -SN OVC005 M01/M01 A2987 RMK AO2 T10081008
KD25 250255Z AUTO 03004KT 4SM -SN OVC005 M01/M01 A2988 RMK AO2 T10071007
KD25 250235Z AUTO 01003KT 5SM -SN OVC005 M01/M01 A2989 RMK AO2 T10081008
KD25 250215Z AUTO 02004KT 3SM -SN OVC005 M01/M01 A2989 RMK AO2 T10081008
KD25 250155Z AUTO 02004KT 4SM -SN OVC005 M01/M01 A2990 RMK AO2 T10071007
KD25 250135Z AUTO 02004KT 5SM -SN OVC007 M01/M01 A2990 RMK AO2 T10071007
KD25 250115Z AUTO 02005KT 7SM -SN OVC007 M01/M01 A2991 RMK AO2 T10061006
KD25 250055Z AUTO 01005KT 5SM -SN OVC007 M01/M01 A2991 RMK AO2 T10061006
KD25 250035Z AUTO 01004KT 4SM -SN OVC007 M01/M01 A2991 RMK AO2 T10061006
KD25 250015Z AUTO 03004KT 10SM OVC007 00/00 A2991 RMK AO2 T10051005
KD25 242355Z AUTO 02004KT 7SM -SN OVC005 00/00 A2991 RMK AO2 T10051005 10000 21006
KD25 242335Z AUTO 02004KT 5SM -SN OVC005 00/00 A2991 RMK AO2 T10051005
KD25 242315Z AUTO 01004KT 4SM -SN OVC007 00/00 A2991 RMK AO2 T10051005
KD25 242255Z AUTO 02003KT 4SM -SN OVC007 00/00 A2992 RMK AO2 T10031003
KD25 242235Z AUTO 03004KT 3SM -SN OVC007 00/00 A2992 RMK AO2 T10031003
KD25 242215Z AUTO 02004KT 5SM -SN OVC007 00/00 A2991 RMK AO2 T10011001
KD25 242155Z AUTO 02003KT 10SM OVC007 00/00 A2992 RMK AO2 T00000000